createdAt,value
2018-06-14T00:00:41.865Z,6.07
2018-06-14T00:03:10.789Z,5.50
2018-06-14T00:05:39.294Z,5.67
2018-06-14T00:08:08.249Z,5.57
2018-06-14T00:10:36.789Z,5.60
2018-06-14T00:13:05.390Z,5.80
2018-06-14T00:15:33.945Z,5.30
2018-06-14T00:18:02.996Z,4.90
2018-06-14T00:20:31.519Z,5.53
2018-06-14T00:22:59.996Z,6.00
2018-06-14T00:25:28.521Z,5.80
2018-06-14T00:27:57.557Z,5.53
2018-06-14T00:30:26.649Z,5.30
2018-06-14T00:32:55.124Z,5.67
2018-06-14T00:35:25.109Z,6.30
2018-06-14T00:37:53.787Z,6.33
2018-06-14T00:40:22.289Z,6.47
2018-06-14T00:42:51.398Z,6.20
2018-06-14T00:45:19.947Z,6.03
2018-06-14T00:47:49.502Z,6.13
2018-06-14T00:50:18.529Z,6.43
2018-06-14T00:52:47.534Z,5.80
2018-06-14T00:55:16.107Z,6.47
2018-06-14T00:57:45.426Z,6.37
2018-06-14T01:00:13.922Z,6.53
2018-06-14T01:02:43.792Z,6.17
2018-06-14T01:05:12.460Z,5.90
2018-06-14T01:07:41.583Z,5.90
2018-06-14T01:10:10.150Z,5.93
2018-06-14T01:12:38.753Z,5.83
2018-06-14T01:15:07.325Z,6.77
2018-06-14T01:17:36.241Z,6.30
2018-06-14T01:20:05.478Z,6.30
2018-06-14T01:22:33.927Z,6.23
2018-06-14T01:25:02.867Z,6.10
2018-06-14T01:27:31.960Z,6.17
2018-06-14T01:30:01.247Z,5.83
2018-06-14T01:32:29.725Z,6.07
2018-06-14T01:34:58.708Z,6.00
2018-06-14T01:37:38.510Z,6.17
2018-06-14T01:40:07.003Z,5.73
2018-06-14T01:42:37.185Z,6.80
2018-06-14T01:45:05.765Z,6.03
2018-06-14T01:47:34.715Z,6.00
2018-06-14T01:50:04.276Z,5.80
2018-06-14T01:52:39.253Z,7.00
2018-06-14T01:55:08.227Z,7.13
2018-06-14T01:57:36.817Z,7.00
2018-06-14T02:00:05.425Z,6.90
2018-06-14T02:02:33.972Z,7.20
2018-06-14T02:05:02.641Z,6.77
2018-06-14T02:07:31.165Z,7.10
2018-06-14T02:09:59.651Z,6.73
2018-06-14T02:12:28.859Z,6.83
2018-06-14T02:15:06.719Z,6.23
2018-06-14T02:17:35.319Z,6.50
2018-06-14T02:20:03.845Z,7.00
2018-06-14T02:22:33.467Z,6.67
2018-06-14T02:25:02.124Z,7.30
2018-06-14T02:27:31.156Z,7.10
2018-06-14T02:30:00.304Z,7.50
2018-06-14T02:32:29.319Z,7.10
2018-06-14T02:34:57.868Z,7.17
2018-06-14T02:37:27.097Z,6.70
2018-06-14T02:39:55.930Z,6.80
2018-06-14T02:42:24.576Z,6.57
2018-06-14T02:44:53.613Z,6.90
2018-06-14T02:47:22.156Z,7.50
2018-06-14T02:49:52.525Z,6.50
2018-06-14T02:52:21.949Z,7.20
2018-06-14T02:54:50.582Z,6.57
2018-06-14T02:57:19.251Z,6.70
2018-06-14T02:59:48.085Z,6.63
2018-06-14T03:02:16.935Z,6.70
2018-06-14T03:04:45.440Z,6.47
2018-06-14T03:07:18.158Z,7.17
2018-06-14T03:09:47.427Z,6.77
2018-06-14T03:12:15.888Z,6.40
2018-06-14T03:14:44.405Z,6.50
2018-06-14T03:17:13.030Z,6.97
2018-06-14T03:19:41.620Z,6.93
2018-06-14T03:22:10.304Z,7.43
2018-06-14T03:24:38.834Z,6.40
2018-06-14T03:27:07.531Z,7.40
2018-06-14T03:29:36.117Z,6.83
2018-06-14T03:32:04.703Z,7.13
2018-06-14T03:34:34.314Z,6.70
2018-06-14T03:37:03.060Z,6.70
2018-06-14T03:39:31.601Z,6.20
2018-06-14T03:42:12.029Z,6.90
2018-06-14T03:44:40.873Z,6.10
2018-06-14T03:47:10.332Z,5.80
2018-06-14T03:49:40.414Z,6.57
2018-06-14T03:52:11.067Z,6.37
2018-06-14T03:54:40.217Z,7.40
2018-06-14T03:57:09.811Z,6.77
2018-06-14T03:59:38.888Z,7.37
2018-06-14T04:02:08.056Z,7.40
2018-06-14T04:04:36.630Z,7.50
2018-06-14T04:07:05.095Z,8.67
2018-06-14T04:09:33.621Z,8.07
2018-06-14T04:12:03.303Z,8.17
2018-06-14T04:14:31.824Z,7.27
2018-06-14T04:17:03.156Z,7.67
2018-06-14T04:19:31.814Z,7.60
2018-06-14T04:22:01.092Z,7.00
2018-06-14T04:24:29.587Z,7.20
2018-06-14T04:26:58.703Z,7.33
2018-06-14T04:29:32.957Z,8.23
2018-06-14T04:32:01.884Z,7.80
2018-06-14T04:34:31.262Z,8.23
2018-06-14T04:37:00.660Z,7.50
2018-06-14T04:39:34.220Z,8.10
2018-06-14T04:42:02.722Z,8.47
2018-06-14T04:44:31.259Z,8.13
2018-06-14T04:47:02.871Z,9.00
2018-06-14T04:49:31.818Z,8.60
2018-06-14T04:52:00.436Z,7.83
2018-06-14T04:57:07.250Z,7.93
2018-06-14T04:59:37.621Z,7.37
2018-06-14T05:02:10.313Z,7.73
2018-06-14T05:04:38.890Z,8.17
2018-06-14T05:07:07.477Z,8.03
2018-06-14T05:09:42.770Z,7.73
2018-06-14T05:12:12.774Z,7.73
2018-06-14T05:14:42.346Z,8.37
2018-06-14T05:17:15.705Z,8.30
2018-06-14T05:19:47.294Z,8.57
2018-06-14T05:22:18.899Z,8.03
2018-06-14T05:24:53.158Z,9.40
2018-06-14T05:27:27.386Z,9.03
2018-06-14T05:29:55.937Z,10.00
2018-06-14T05:32:24.505Z,10.00
2018-06-14T05:34:57.315Z,8.83
2018-06-14T05:37:26.859Z,8.90
2018-06-14T05:39:56.410Z,9.20
2018-06-14T05:42:25.844Z,9.90
2018-06-14T05:44:54.704Z,9.40
2018-06-14T05:47:24.400Z,8.53
2018-06-14T05:49:53.330Z,8.80
2018-06-14T05:52:23.546Z,9.20
2018-06-14T05:54:52.652Z,8.90
2018-06-14T05:57:21.263Z,9.60
2018-06-14T05:59:49.919Z,10.40
2018-06-14T06:02:22.137Z,10.17
2018-06-14T06:04:51.002Z,10.70
2018-06-14T06:07:20.571Z,10.23
2018-06-14T06:09:51.965Z,9.50
2018-06-14T06:12:29.622Z,9.90
2018-06-14T06:15:05.072Z,10.00
2018-06-14T06:17:34.244Z,10.30
2018-06-14T06:20:12.614Z,10.50
2018-06-14T06:22:48.296Z,10.10
2018-06-14T06:25:16.966Z,10.83
2018-06-14T06:27:50.458Z,10.93
2018-06-14T06:30:21.507Z,10.93
2018-06-14T06:32:50.689Z,10.27
2018-06-14T06:35:22.774Z,11.43
2018-06-14T06:37:51.319Z,10.20
2018-06-14T06:40:19.948Z,10.70
2018-06-14T06:42:51.861Z,10.10
2018-06-14T06:45:24.767Z,10.23
2018-06-14T06:47:54.628Z,9.87
2018-06-14T06:50:28.428Z,9.13
2018-06-14T06:52:57.159Z,10.87
2018-06-14T06:55:37.616Z,9.50
2018-06-14T06:58:16.849Z,9.33
2018-06-14T07:03:20.875Z,9.63
2018-06-14T07:05:49.410Z,8.83
2018-06-14T07:08:17.978Z,9.77
2018-06-14T07:10:46.506Z,8.90
2018-06-14T07:13:16.350Z,8.67
2018-06-14T07:15:50.714Z,8.40
2018-06-14T07:18:20.576Z,7.20
2018-06-14T07:21:06.406Z,7.13
2018-06-14T07:23:35.841Z,7.00
2018-06-14T07:26:07.308Z,6.90
2018-06-14T07:28:36.277Z,6.90
2018-06-14T07:31:10.400Z,6.60
2018-06-14T07:33:42.797Z,4.27
2018-06-14T07:36:13.549Z,5.07
2018-06-14T07:38:44.707Z,6.17
2018-06-14T07:41:14.313Z,4.73
2018-06-14T07:43:50.437Z,3.73
2018-06-14T07:46:24.734Z,3.63
2018-06-14T07:49:06.245Z,3.93
2018-06-14T07:51:35.618Z,3.93
2018-06-14T07:54:04.115Z,4.23
2018-06-14T07:56:32.992Z,4.30
2018-06-14T07:59:01.596Z,3.83
2018-06-14T08:01:31.650Z,4.13
2018-06-14T08:04:00.966Z,4.47
2018-06-14T08:06:29.829Z,5.30
2018-06-14T08:08:58.764Z,4.50
2018-06-14T08:11:29.863Z,4.30
2018-06-14T08:14:00.687Z,4.57
2018-06-14T08:16:29.984Z,4.37
2018-06-14T08:19:03.451Z,4.33
2018-06-14T08:21:32.777Z,3.20
2018-06-14T08:24:01.654Z,2.83
2018-06-14T08:26:30.262Z,3.00
2018-06-14T08:28:59.152Z,2.83
2018-06-14T08:31:29.401Z,3.13
2018-06-14T08:33:58.078Z,2.80
2018-06-14T08:36:34.469Z,3.50
2018-06-14T08:39:12.334Z,2.80
2018-06-14T08:41:42.137Z,2.70
2018-06-14T08:44:12.014Z,2.67
2018-06-14T08:46:41.757Z,2.83
2018-06-14T08:49:11.210Z,2.90
2018-06-14T08:51:39.719Z,2.50
2018-06-14T08:54:10.126Z,2.73
2018-06-14T08:56:39.003Z,2.47
2018-06-14T08:59:08.180Z,2.50
2018-06-14T09:01:38.965Z,2.60
2018-06-14T09:04:08.906Z,3.17
2018-06-14T09:06:37.791Z,2.73
2018-06-14T09:09:10.941Z,2.90
2018-06-14T09:11:42.334Z,2.80
2018-06-14T09:14:11.660Z,2.80
2018-06-14T09:16:40.898Z,2.50
2018-06-14T09:19:13.615Z,2.83
2018-06-14T09:21:42.206Z,3.03
2018-06-14T09:24:11.686Z,3.20
2018-06-14T09:26:48.984Z,3.47
2018-06-14T09:29:17.822Z,2.83
2018-06-14T09:31:46.996Z,3.07
2018-06-14T09:34:17.695Z,3.37
2018-06-14T09:36:48.022Z,2.77
2018-06-14T09:39:16.539Z,3.40
2018-06-14T09:41:45.001Z,2.37
2018-06-14T09:44:13.778Z,2.83
2018-06-14T09:46:42.687Z,2.73
2018-06-14T09:49:17.749Z,2.97
2018-06-14T09:51:48.451Z,2.80
2018-06-14T09:54:17.172Z,2.67
2018-06-14T09:56:46.101Z,3.40
2018-06-14T09:59:14.637Z,2.60
2018-06-14T10:01:43.388Z,2.70
2018-06-14T10:04:12.173Z,3.13
2018-06-14T10:06:40.678Z,2.73
2018-06-14T10:09:11.627Z,3.20
2018-06-14T10:11:40.737Z,2.80
2018-06-14T10:14:10.306Z,2.43
2018-06-14T10:16:42.973Z,3.20
2018-06-14T10:19:13.441Z,2.53
2018-06-14T10:21:42.917Z,2.50
2018-06-14T10:24:11.545Z,2.93
2018-06-14T10:26:40.154Z,2.87
2018-06-14T10:29:10.877Z,2.60
2018-06-14T10:31:43.544Z,2.73
2018-06-14T10:34:12.069Z,3.20
2018-06-14T10:36:41.126Z,2.90
2018-06-14T10:39:10.262Z,3.13
2018-06-14T10:41:43.152Z,3.03
2018-06-14T10:44:12.368Z,4.13
2018-06-14T10:46:42.223Z,3.57
2018-06-14T10:49:10.809Z,3.33
2018-06-14T10:51:40.293Z,3.67
2018-06-14T10:54:10.115Z,3.37
2018-06-14T10:56:39.504Z,3.20
2018-06-14T10:59:08.037Z,3.40
2018-06-14T11:01:36.574Z,3.67
2018-06-14T11:04:05.804Z,3.30
2018-06-14T11:06:34.846Z,3.40
2018-06-14T11:09:08.386Z,3.40
2018-06-14T11:11:37.120Z,3.20
2018-06-14T11:14:06.430Z,3.40
2018-06-14T11:16:39.414Z,3.67
2018-06-14T11:19:13.244Z,3.10
2018-06-14T11:21:54.112Z,4.10
2018-06-14T11:24:29.835Z,3.23
2018-06-14T11:26:58.324Z,3.40
2018-06-14T11:29:31.600Z,3.03
2018-06-14T11:32:04.031Z,3.27
2018-06-14T11:34:32.538Z,2.67
2018-06-14T11:37:01.009Z,3.20
2018-06-14T11:39:31.867Z,3.50
2018-06-14T11:42:00.504Z,3.37
2018-06-14T11:44:32.723Z,3.00
2018-06-14T11:47:01.491Z,2.73
2018-06-14T11:49:30.058Z,3.23
2018-06-14T11:52:04.046Z,2.70
2018-06-14T11:54:33.391Z,2.83
2018-06-14T11:57:05.505Z,2.70
2018-06-14T11:59:34.118Z,3.30
2018-06-14T12:02:03.423Z,2.90
2018-06-14T12:04:33.306Z,2.90
2018-06-14T12:07:04.606Z,2.80
2018-06-14T12:09:35.323Z,2.97
2018-06-14T12:12:03.832Z,3.70
2018-06-14T12:14:39.237Z,3.20
2018-06-14T12:17:08.843Z,2.67
2018-06-14T12:19:38.673Z,2.50
2018-06-14T12:22:07.969Z,3.10
2018-06-14T12:24:40.334Z,2.90
2018-06-14T12:27:11.973Z,2.90
2018-06-14T12:29:40.498Z,2.80
2018-06-14T12:32:08.993Z,2.90
2018-06-14T12:34:37.703Z,3.07
2018-06-14T12:37:06.568Z,3.17
2018-06-14T12:39:35.095Z,3.50
2018-06-14T12:42:08.630Z,3.80
2018-06-14T12:44:39.065Z,2.90
2018-06-14T12:47:10.517Z,3.70
2018-06-14T12:49:39.695Z,3.40
2018-06-14T12:52:11.201Z,3.03
2018-06-14T12:54:40.353Z,3.30
2018-06-14T12:57:09.096Z,3.10
2018-06-14T12:59:44.746Z,3.00
2018-06-14T13:02:17.893Z,3.40
2018-06-14T13:04:46.591Z,3.00
2018-06-14T13:07:20.424Z,3.00
2018-06-14T13:09:49.729Z,3.53
2018-06-14T13:12:21.790Z,3.20
2018-06-14T13:14:50.573Z,2.83
2018-06-14T13:17:19.500Z,3.13
2018-06-14T13:19:48.039Z,3.30
2018-06-14T13:22:23.426Z,3.50
2018-06-14T13:24:51.976Z,2.70
2018-06-14T13:27:20.540Z,3.10
2018-06-14T13:29:49.452Z,2.53
2018-06-14T13:32:21.113Z,2.97
2018-06-14T13:34:51.370Z,2.63
2018-06-14T13:37:20.291Z,2.60
2018-06-14T13:39:49.188Z,2.70
2018-06-14T13:42:22.246Z,2.60
2018-06-14T13:44:50.991Z,2.60
2018-06-14T13:47:22.504Z,3.03
2018-06-14T13:49:51.753Z,3.07
2018-06-14T13:52:21.988Z,2.97
2018-06-14T13:54:50.529Z,2.90
2018-06-14T13:57:19.170Z,2.60
2018-06-14T13:59:50.562Z,2.93
2018-06-14T14:02:19.151Z,2.90
2018-06-14T14:07:28.787Z,2.90
2018-06-14T14:10:01.793Z,2.53
2018-06-14T14:12:30.850Z,2.73
2018-06-14T14:15:01.847Z,3.20
2018-06-14T14:17:30.591Z,2.93
2018-06-14T14:20:01.738Z,3.27
2018-06-14T14:22:33.826Z,2.47
2018-06-14T14:25:02.419Z,3.40
2018-06-14T14:27:36.209Z,2.80
2018-06-14T14:30:04.831Z,2.73
2018-06-14T14:32:34.032Z,2.70
2018-06-14T14:35:02.585Z,2.70
2018-06-14T14:37:35.946Z,3.13
2018-06-14T14:40:08.764Z,2.97
2018-06-14T14:42:37.325Z,2.97
2018-06-14T14:45:15.190Z,3.10
2018-06-14T14:47:49.480Z,2.80
2018-06-14T14:50:23.105Z,3.10
2018-06-14T14:52:52.230Z,2.87
2018-06-14T14:55:21.075Z,3.03
2018-06-14T14:57:49.640Z,3.10
2018-06-14T15:00:28.950Z,3.30
2018-06-14T15:02:59.863Z,3.30
2018-06-14T15:05:28.467Z,3.40
2018-06-14T15:07:58.887Z,3.43
2018-06-14T15:10:28.218Z,3.30
2018-06-14T15:13:02.945Z,3.83
2018-06-14T15:15:32.174Z,3.30
2018-06-14T15:18:07.650Z,3.47
2018-06-14T15:20:44.380Z,3.60
2018-06-14T15:23:13.233Z,3.20
2018-06-14T15:25:41.815Z,3.33
2018-06-14T15:28:10.505Z,3.83
2018-06-14T15:30:39.421Z,2.80
2018-06-14T15:33:07.988Z,2.83
2018-06-14T15:35:36.537Z,2.97
2018-06-14T15:38:05.829Z,3.20
2018-06-14T15:40:36.531Z,3.30
2018-06-14T15:43:05.102Z,2.90
2018-06-14T15:45:34.023Z,3.00
2018-06-14T15:48:02.966Z,3.17
2018-06-14T15:50:32.344Z,3.00
2018-06-14T15:53:00.990Z,3.47
2018-06-14T15:56:37.360Z,3.10
2018-06-14T15:59:08.096Z,3.40
2018-06-14T16:01:37.049Z,2.90
2018-06-14T16:04:06.361Z,3.10
2018-06-14T16:06:35.086Z,3.10
2018-06-14T16:09:04.806Z,2.83
2018-06-14T16:11:33.439Z,2.60
2018-06-14T16:14:02.170Z,2.80
2018-06-14T16:16:30.900Z,2.87
2018-06-14T16:18:59.610Z,3.00
2018-06-14T16:21:28.216Z,3.00
2018-06-14T16:23:56.846Z,2.93
2018-06-14T16:26:26.571Z,3.10
2018-06-14T16:28:56.420Z,3.00
2018-06-14T16:31:25.551Z,2.80
2018-06-14T16:33:56.367Z,3.20
2018-06-14T16:36:25.600Z,2.70
2018-06-14T16:38:54.349Z,3.10
2018-06-14T16:41:23.007Z,3.17
2018-06-14T16:43:53.504Z,3.40
2018-06-14T16:46:28.685Z,2.90
2018-06-14T16:48:57.356Z,3.10
2018-06-14T16:51:25.960Z,3.50
2018-06-14T16:53:54.623Z,3.20
2018-06-14T16:56:23.283Z,3.10
2018-06-14T16:58:51.875Z,2.90
2018-06-14T17:01:20.530Z,3.10
2018-06-14T17:03:49.241Z,3.03
2018-06-14T17:06:18.430Z,3.23
2018-06-14T17:08:49.346Z,3.20
2018-06-14T17:11:20.363Z,3.10
2018-06-14T17:14:05.986Z,3.40
2018-06-14T17:16:36.603Z,3.53
2018-06-14T17:19:07.297Z,3.13
2018-06-14T17:21:36.819Z,3.57
2018-06-14T17:24:05.888Z,3.27
2018-06-14T17:26:34.795Z,3.27
2018-06-14T17:29:03.942Z,3.60
2018-06-14T17:31:32.733Z,3.40
2018-06-14T17:34:01.482Z,3.77
2018-06-14T17:36:31.082Z,3.77
2018-06-14T17:38:59.702Z,3.77
2018-06-14T17:41:29.470Z,3.60
2018-06-14T17:43:56.903Z,4.27
2018-06-14T17:46:25.412Z,3.70
2018-06-14T17:48:55.171Z,3.83
2018-06-14T17:51:24.294Z,4.00
2018-06-14T17:53:53.005Z,4.57
2018-06-14T17:56:21.634Z,3.97
2018-06-14T17:58:51.969Z,4.20
2018-06-14T18:01:21.879Z,4.03
2018-06-14T18:03:52.606Z,4.00
2018-06-14T18:06:24.452Z,4.23
2018-06-14T18:08:54.504Z,4.80
2018-06-14T18:11:25.058Z,4.60
2018-06-14T18:13:55.041Z,3.93
2018-06-14T18:16:25.925Z,4.13
2018-06-14T18:18:56.026Z,4.90
2018-06-14T18:21:26.987Z,4.37
2018-06-14T18:23:56.901Z,4.50
2018-06-14T18:26:27.542Z,4.90
2018-06-14T18:28:56.442Z,4.30
2018-06-14T18:31:26.364Z,4.10
2018-06-14T18:33:56.299Z,4.37
2018-06-14T18:36:25.451Z,4.83
2018-06-14T18:38:55.030Z,3.93
2018-06-14T18:41:23.999Z,5.00
2018-06-14T18:43:53.506Z,4.53
2018-06-14T18:46:23.508Z,4.90
2018-06-14T18:48:52.819Z,4.40
2018-06-14T18:51:27.143Z,4.60
2018-06-14T18:53:57.122Z,4.80
2018-06-14T18:56:32.104Z,5.10
2018-06-14T18:59:00.855Z,4.27
2018-06-14T19:01:30.261Z,5.10
2018-06-14T19:03:58.837Z,4.90
2018-06-14T19:06:27.479Z,4.63
2018-06-14T19:08:57.323Z,4.10
2018-06-14T19:11:26.580Z,4.70
2018-06-14T19:13:55.169Z,4.53
2018-06-14T19:16:24.351Z,5.20
2018-06-14T19:18:53.130Z,5.67
2018-06-14T19:21:22.270Z,5.33
2018-06-14T19:23:51.723Z,5.03
2018-06-14T19:26:20.710Z,5.37
2018-06-14T19:28:49.326Z,5.57
2018-06-14T19:31:18.063Z,5.20
2018-06-14T19:33:47.159Z,5.50
2018-06-14T19:36:15.721Z,4.80
2018-06-14T19:38:44.380Z,4.97
2018-06-14T19:41:12.941Z,5.27
2018-06-14T19:43:41.938Z,4.83
2018-06-14T19:46:10.503Z,5.30
2018-06-14T19:48:40.205Z,4.87
2018-06-14T19:51:08.757Z,5.77
2018-06-14T19:53:37.502Z,5.17
2018-06-14T19:56:06.135Z,5.40
2018-06-14T19:58:34.794Z,4.90
2018-06-14T20:01:03.628Z,4.70
2018-06-14T20:03:32.320Z,5.47
2018-06-14T20:06:02.225Z,5.50
2018-06-14T20:08:30.815Z,4.83
2018-06-14T20:10:59.341Z,5.50
2018-06-14T20:13:27.893Z,5.60
2018-06-14T20:15:56.487Z,5.23
2018-06-14T20:18:24.957Z,5.13
2018-06-14T20:20:53.957Z,5.70
2018-06-14T20:23:22.575Z,4.93
2018-06-14T20:25:51.203Z,5.07
2018-06-14T20:28:19.944Z,5.63
2018-06-14T20:30:48.445Z,5.43
2018-06-14T20:33:17.004Z,5.60
2018-06-14T20:35:45.759Z,5.20
2018-06-14T20:38:14.388Z,5.30
2018-06-14T20:40:43.039Z,5.30
2018-06-14T20:43:11.671Z,5.77
2018-06-14T20:45:40.253Z,5.93
2018-06-14T20:48:09.603Z,6.13
2018-06-14T20:50:38.217Z,5.70
2018-06-14T20:53:07.410Z,5.77
2018-06-14T20:55:36.089Z,5.37
2018-06-14T20:58:04.655Z,5.53
2018-06-14T21:00:33.465Z,6.00
2018-06-14T21:03:01.992Z,6.13
2018-06-14T21:05:30.492Z,5.93
2018-06-14T21:07:59.727Z,5.90
2018-06-14T21:10:28.523Z,5.87
2018-06-14T21:12:57.148Z,6.27
2018-06-14T21:15:25.752Z,6.00
2018-06-14T21:17:54.400Z,6.73
2018-06-14T21:20:23.292Z,6.40
2018-06-14T21:22:52.237Z,7.23
2018-06-14T21:25:20.951Z,6.70
2018-06-14T21:27:50.403Z,6.43
2018-06-14T21:30:19.733Z,6.60
2018-06-14T21:32:48.294Z,6.77
2018-06-14T21:35:17.208Z,7.80
2018-06-14T21:37:45.767Z,8.20
2018-06-14T21:40:14.535Z,7.50
2018-06-14T21:42:43.124Z,7.43
2018-06-14T21:45:11.628Z,7.23
2018-06-14T21:47:40.146Z,7.70
2018-06-14T21:50:08.719Z,7.77
2018-06-14T21:52:37.268Z,7.10
2018-06-14T21:55:05.766Z,8.30
2018-06-14T21:57:34.326Z,7.80
2018-06-14T22:00:02.926Z,7.70
2018-06-14T22:02:31.600Z,7.17
2018-06-14T22:05:00.085Z,6.97
2018-06-14T22:07:28.574Z,7.03
2018-06-14T22:09:57.162Z,6.90
2018-06-14T22:12:25.710Z,7.20
2018-06-14T22:14:54.337Z,7.90
2018-06-14T22:17:22.799Z,7.30
2018-06-14T22:19:51.333Z,6.70
2018-06-14T22:22:20.400Z,7.57
2018-06-14T22:24:48.842Z,8.03
2018-06-14T22:27:17.403Z,7.67
2018-06-14T22:29:46.027Z,7.93
2018-06-14T22:32:14.493Z,6.93
2018-06-14T22:34:53.998Z,8.00
2018-06-14T22:37:23.223Z,7.83
2018-06-14T22:39:51.822Z,7.37
2018-06-14T22:42:20.259Z,7.20
2018-06-14T22:44:48.857Z,7.73
2018-06-14T22:47:17.313Z,8.73
2018-06-14T22:49:46.863Z,8.37
2018-06-14T22:52:56.709Z,7.80
2018-06-14T22:55:25.920Z,7.90
2018-06-14T22:57:54.431Z,7.67
2018-06-14T23:01:43.216Z,7.63
2018-06-14T23:04:12.977Z,8.07
2018-06-14T23:06:41.475Z,7.43
2018-06-14T23:10:29.973Z,8.17
2018-06-14T23:12:58.498Z,7.53
2018-06-14T23:15:27.212Z,7.30
2018-06-14T23:17:55.869Z,7.27
2018-06-14T23:20:25.394Z,7.20
2018-06-14T23:22:56.424Z,7.03
2018-06-14T23:25:25.709Z,6.80
2018-06-14T23:27:54.206Z,7.50
2018-06-14T23:30:22.674Z,7.20
2018-06-14T23:32:51.264Z,7.30
2018-06-14T23:35:19.894Z,7.43
2018-06-14T23:37:48.514Z,7.30
2018-06-14T23:40:16.995Z,7.10
2018-06-14T23:42:45.597Z,7.67
2018-06-14T23:45:14.162Z,7.27
2018-06-14T23:47:42.652Z,7.07
2018-06-14T23:50:11.173Z,7.43
2018-06-14T23:52:39.638Z,7.20
2018-06-14T23:55:08.162Z,7.60
2018-06-14T23:57:36.729Z,8.17
